Rolling Meadows, Illinois
Current Conditions -  °F | °C
As of 9:52 AM on Friday 21 Nov 2014 (Local Time) from KPWK Reporting Station
Clear Clear  
Wind Chill: 13°   Ceiling: Unl
Heat Index: 22°   Visibility: 10mi
Dew Point:   Wind: 7mph
Humidity: 46%   Direction: 170°S
Pressure: 30.47"   Gusts: NA
Location:  42.08°N, 88.03°W
Report Text: KPWK 211552Z 17006KT 10SM CLR M06/M16 A3047 RMK AO2 SLP328 T10561156
Loading
Personal Weather Stations






























Interactive Weather Map New forecast layout! Learn more

10-Day Weather Forecast

Advertisements
Track Severe Weather on mobile